Time;durP1;ratioP1;P1;durP2;ratioP2;P2;SDS_P1;SDS_P2;PMS_P1;PMS_P2;Temp;Humidity;BMP_temperature;BMP_pressure;BME280_temperature;BME280_humidity;BME280_pressure;Samples;Min_cycle;Max_cycle;Signal;HPM_P1;HPM_P2
2022/01/11 00:01:42;;;;;;;105.35;59.88;;;;;;;-2.41;100.00;102493.97;6238292;23;20012;-86
2022/01/11 00:04:10;;;;;;;100.88;58.28;;;;;;;-2.50;100.00;102487.19;6263337;22;20382;-84
2022/01/11 00:06:42;;;;;;;104.13;58.20;;;;;;;-2.40;100.00;102488.66;6238337;23;20094;-85
2022/01/11 00:09:20;;;;;;;102.72;62.13;;;;;;;-2.38;100.00;102488.63;6239507;22;20027;-86
2022/01/11 00:11:54;;;;;;;104.90;60.30;;;;;;;-2.43;100.00;102490.50;6237843;23;20347;-84
2022/01/11 00:14:19;;;;;;;105.38;61.65;;;;;;;-2.48;100.00;102489.75;6236282;23;20341;-84
2022/01/11 00:16:45;;;;;;;102.25;53.67;;;;;;;-2.61;100.00;102489.22;6237878;23;20094;-85
2022/01/11 00:19:13;;;;;;;95.20;57.58;;;;;;;-2.57;100.00;102490.84;6212977;22;20011;-84
2022/01/11 00:21:55;;;;;;;97.95;60.05;;;;;;;-2.52;100.00;102492.47;6240358;22;20024;-85
2022/01/11 00:24:29;;;;;;;90.38;54.10;;;;;;;-2.56;100.00;102506.59;6237675;23;20024;-86
2022/01/11 00:27:09;;;;;;;106.13;59.13;;;;;;;-2.58;100.00;102511.00;6262927;22;20066;-86
2022/01/11 00:29:45;;;;;;;100.22;58.22;;;;;;;-2.55;100.00;102510.06;6238430;22;20043;-85
2022/01/11 00:32:15;;;;;;;101.93;58.58;;;;;;;-2.51;100.00;102507.31;6238631;22;20031;-83
2022/01/11 00:34:51;;;;;;;91.57;54.47;;;;;;;-2.55;100.00;102526.72;6239122;22;20023;-85
2022/01/11 00:37:19;;;;;;;95.68;57.58;;;;;;;-2.52;100.00;102521.38;6239048;22;20012;-85
2022/01/11 00:39:49;;;;;;;95.65;52.75;;;;;;;-2.48;100.00;102516.03;6213623;23;20020;-84
2022/01/11 00:42:16;;;;;;;88.05;51.38;;;;;;;-2.50;100.00;102516.94;6238032;22;20442;-84
2022/01/11 00:44:43;;;;;;;87.85;51.78;;;;;;;-2.58;100.00;102518.91;6237438;23;20012;-85
2022/01/11 00:47:10;;;;;;;86.03;51.05;;;;;;;-2.63;100.00;102523.41;6237962;22;20038;-82
2022/01/11 00:49:40;;;;;;;87.90;53.08;;;;;;;-2.59;100.00;102525.06;6212531;23;20016;-84
2022/01/11 00:52:06;;;;;;;90.75;54.70;;;;;;;-2.67;100.00;102524.38;6237383;22;20027;-84
2022/01/11 00:54:33;;;;;;;90.10;55.38;;;;;;;-2.65;100.00;102530.44;6240279;22;20016;-83
2022/01/11 00:57:09;;;;;;;87.13;53.65;;;;;;;-2.69;100.00;102522.69;6237630;22;20052;-84
2022/01/11 00:59:35;;;;;;;85.60;49.33;;;;;;;-2.83;100.00;102528.28;6239819;22;20016;-86
2022/01/11 01:02:00;;;;;;;90.65;53.53;;;;;;;-2.70;100.00;102524.47;6236283;22;20453;-83
2022/01/11 01:04:26;;;;;;;95.65;56.95;;;;;;;-2.69;100.00;102517.44;6237751;23;20020;-84
2022/01/11 01:06:53;;;;;;;91.35;55.42;;;;;;;-2.68;100.00;102520.00;6239145;22;20016;-86
2022/01/11 01:09:19;;;;;;;89.47;49.42;;;;;;;-2.82;100.00;102517.75;6237594;22;20008;-83
2022/01/11 01:11:46;;;;;;;97.18;59.63;;;;;;;-2.74;100.00;102521.03;6237641;23;20411;-83
2022/01/11 01:14:15;;;;;;;95.18;58.58;;;;;;;-2.68;100.00;102529.66;6239386;22;20047;-84
2022/01/11 01:16:48;;;;;;;;;;;;;;;-2.68;100.00;102527.03;6214596;23;20383;-85
2022/01/11 01:19:13;;;;;;;94.43;59.38;;;;;;;-2.78;100.00;102529.03;6262612;22;19990;-84
2022/01/11 01:21:41;;;;;;;89.97;53.60;;;;;;;-2.82;100.00;102533.50;6211438;23;20046;-83
2022/01/11 01:24:10;;;;;;;100.75;58.60;;;;;;;-2.70;100.00;102534.97;6210658;22;20043;-86
2022/01/11 01:26:37;;;;;;;92.60;59.03;;;;;;;-2.63;100.00;102541.81;6237130;23;20102;-84
2022/01/11 01:29:11;;;;;;;84.20;52.78;;;;;;;-2.70;100.00;102548.13;6238010;22;20022;-83
2022/01/11 01:31:38;;;;;;;90.10;50.58;;;;;;;-2.72;100.00;102549.91;6212712;22;20578;-83
2022/01/11 01:34:04;;;;;;;93.72;52.42;;;;;;;-2.67;100.00;102553.31;6262769;22;20455;-84
2022/01/11 01:36:29;;;;;;;85.63;55.15;;;;;;;-2.59;100.00;102548.72;6212354;23;20074;-85
2022/01/11 01:38:55;;;;;;;99.03;59.25;;;;;;;-2.60;100.00;102557.50;6264092;22;20024;-84
2022/01/11 01:41:23;;;;;;;91.13;56.10;;;;;;;-2.56;100.00;102560.91;6236354;22;20382;-83
2022/01/11 01:44:02;;;;;;;91.93;53.65;;;;;;;-2.62;100.00;102559.31;6262666;22;20027;-84
2022/01/11 01:46:32;;;;;;;85.68;53.92;;;;;;;-2.73;100.00;102563.97;6236578;23;20523;-85
2022/01/11 01:49:00;;;;;;;84.82;49.92;;;;;;;-2.83;100.00;102563.28;6211655;23;20357;-83
2022/01/11 01:51:28;;;;;;;83.72;46.58;;;;;;;-2.87;100.00;102566.91;6235359;22;20414;-85
2022/01/11 01:53:55;;;;;;;86.75;52.00;;;;;;;-2.77;100.00;102572.78;6262579;22;20066;-84
2022/01/11 01:56:22;;;;;;;81.72;50.42;;;;;;;-2.80;100.00;102567.63;6236745;23;20020;-83
2022/01/11 01:58:50;;;;;;;90.13;55.00;;;;;;;-2.75;100.00;102576.25;6236988;23;20338;-83
2022/01/11 02:01:18;;;;;;;86.80;50.78;;;;;;;-2.77;100.00;102571.03;6263058;22;20027;-84
2022/01/11 02:03:45;;;;;;;87.55;52.42;;;;;;;-2.74;100.00;102572.72;6240664;23;20023;-82
2022/01/11 02:06:18;;;;;;;81.95;52.58;;;;;;;-2.71;100.00;102575.28;6239203;22;20020;-83
2022/01/11 02:08:49;;;;;;;88.90;49.15;;;;;;;-2.85;100.00;102583.50;6241299;23;20012;-85
2022/01/11 02:11:18;;;;;;;82.43;52.33;;;;;;;-2.85;100.00;102574.72;6264769;22;20012;-85
2022/01/11 02:13:48;;;;;;;88.25;48.63;;;;;;;-2.93;100.00;102566.16;6240686;23;20053;-86
2022/01/11 02:16:22;;;;;;;94.30;53.30;;;;;;;-2.82;100.00;102566.78;6239378;22;20743;-83
2022/01/11 02:18:50;;;;;;;84.30;52.00;;;;;;;-2.79;100.00;102570.22;6240422;23;20013;-84
2022/01/11 02:21:16;;;;;;;92.27;48.77;;;;;;;-2.92;100.00;102567.91;6240428;22;20313;-84
2022/01/11 02:23:44;;;;;;;92.03;53.45;;;;;;;-2.84;100.00;102565.97;6239064;23;20024;-85
2022/01/11 02:26:10;;;;;;;85.40;50.92;;;;;;;-2.84;100.00;102571.22;6239141;22;20450;-83
2022/01/11 02:28:38;;;;;;;94.30;52.53;;;;;;;-2.83;100.00;102567.69;6240385;22;20032;-83
2022/01/11 02:31:07;;;;;;;82.32;50.22;;;;;;;-2.89;100.00;102565.19;6241110;22;20009;-84
2022/01/11 02:33:38;;;;;;;85.88;50.53;;;;;;;-2.89;100.00;102571.31;6239622;23;20019;-83
2022/01/11 02:36:10;;;;;;;78.88;45.95;;;;;;;-3.01;100.00;102569.81;6241077;22;20024;-85
2022/01/11 02:38:36;;;;;;;86.60;51.80;;;;;;;-2.96;100.00;102569.72;6239097;23;20023;-85
2022/01/11 02:41:04;;;;;;;84.22;49.83;;;;;;;-2.96;100.00;102573.22;6238810;22;20016;-82
2022/01/11 02:43:31;;;;;;;85.18;51.60;;;;;;;-2.95;100.00;102571.44;6241691;22;20016;-84
2022/01/11 02:46:01;;;;;;;89.63;53.13;;;;;;;-2.91;100.00;102570.47;6240276;22;20012;-85
2022/01/11 02:48:28;;;;;;;90.85;53.42;;;;;;;-2.82;100.00;102579.91;6239513;23;20020;-84
2022/01/11 02:50:54;;;;;;;79.40;43.50;;;;;;;-2.99;100.00;102583.81;6240098;22;20020;-85
2022/01/11 02:53:20;;;;;;;73.78;45.75;;;;;;;-2.98;100.00;102580.25;6213911;22;20020;-85
2022/01/11 02:55:46;;;;;;;86.53;48.17;;;;;;;-3.00;100.00;102581.19;6239045;23;20038;-84
2022/01/11 02:58:13;;;;;;;90.68;52.85;;;;;;;-2.82;100.00;102586.06;6237017;22;20020;-83
2022/01/11 03:00:46;;;;;;;84.88;46.63;;;;;;;-2.91;100.00;102585.38;6240029;22;20020;-83
2022/01/11 03:03:14;;;;;;;81.18;48.03;;;;;;;-2.94;100.00;102596.81;6238695;22;20019;-84
2022/01/11 03:05:46;;;;;;;80.82;45.70;;;;;;;-2.92;100.00;102595.03;6239285;23;20016;-84
2022/01/11 03:08:15;;;;;;;77.57;44.80;;;;;;;-2.95;100.00;102595.94;6237774;22;20024;-84
2022/01/11 03:10:49;;;;;;;77.53;45.03;;;;;;;-2.97;100.00;102603.00;6240758;22;20038;-86
2022/01/11 03:13:16;;;;;;;72.88;42.35;;;;;;;-2.93;100.00;102602.94;6238115;22;20023;-84
2022/01/11 03:15:45;;;;;;;86.50;46.47;;;;;;;-2.93;100.00;102602.94;6238883;23;20130;-82
2022/01/11 03:18:14;;;;;;;72.57;45.05;;;;;;;-2.98;100.00;102606.53;6213831;22;20099;-83
2022/01/11 03:20:46;;;;;;;74.45;41.80;;;;;;;-3.04;100.00;102605.81;6238965;22;20091;-83
2022/01/11 03:23:18;;;;;;;81.85;47.05;;;;;;;-3.01;100.00;102603.97;6211483;22;20095;-84
2022/01/11 03:25:51;;;;;;;72.32;41.35;;;;;;;-3.04;100.00;102608.44;6264685;22;20023;-85
2022/01/11 03:28:24;;;;;;;76.80;41.67;;;;;;;-3.04;100.00;102609.28;6238197;22;20063;-86
2022/01/11 03:30:52;;;;;;;79.55;46.33;;;;;;;-3.12;100.00;102608.59;6237668;23;20031;-83
2022/01/11 03:33:18;;;;;;;82.87;47.07;;;;;;;-2.88;100.00;102616.84;6238251;22;20099;-85
2022/01/11 03:35:56;;;;;;;76.15;40.08;;;;;;;-2.99;100.00;102615.31;6264549;22;20281;-84
2022/01/11 03:38:22;;;;;;;96.57;50.07;;;;;;;-2.74;100.00;102635.78;6238652;22;20022;-84
2022/01/11 03:40:48;;;;;;;75.40;45.40;;;;;;;-2.68;100.00;102622.50;6212169;23;20330;-84
2022/01/11 03:43:22;;;;;;;80.15;45.85;;;;;;;-2.78;100.00;102628.88;6238275;22;20012;-86
2022/01/11 03:45:48;;;;;;;68.85;40.67;;;;;;;-3.03;100.00;102629.41;6238788;23;20012;-84
2022/01/11 03:48:21;;;;;;;74.35;43.22;;;;;;;-2.87;100.00;102635.22;6213599;22;20726;-84
2022/01/11 03:50:52;;;;;;;111.22;59.47;;;;;;;-2.63;100.00;102627.69;6239194;23;20658;-86
2022/01/11 03:53:19;;;;;;;78.13;42.42;;;;;;;-2.79;100.00;102635.03;6236869;22;20016;-84
2022/01/11 03:58:23;;;;;;;78.50;47.60;;;;;;;-2.76;100.00;102630.59;6241922;22;20012;-86
2022/01/11 04:00:51;;;;;;;84.63;49.58;;;;;;;-2.73;100.00;102619.16;6238430;23;20402;-85
2022/01/11 04:03:17;;;;;;;83.80;48.92;;;;;;;-2.90;100.00;102626.53;6239291;22;20358;-84
2022/01/11 04:05:43;;;;;;;92.55;48.50;;;;;;;-2.81;100.00;102624.56;6239564;23;20018;-85
2022/01/11 04:08:18;;;;;;;78.72;44.97;;;;;;;-2.79;100.00;102628.03;6239065;22;20438;-84
2022/01/11 04:10:46;;;;;;;92.50;50.80;;;;;;;-2.77;100.00;102623.59;6237649;23;20042;-85
2022/01/11 04:13:12;;;;;;;74.80;41.70;;;;;;;-2.78;100.00;102621.00;6263868;22;20370;-84
2022/01/11 04:15:42;;;;;;;89.18;48.20;;;;;;;-2.61;100.00;102620.63;6239056;23;20075;-83
2022/01/11 04:18:07;;;;;;;75.95;41.45;;;;;;;-2.73;100.00;102616.53;6235737;22;20409;-86
2022/01/11 04:20:34;;;;;;;88.05;47.33;;;;;;;-2.73;100.00;102617.38;6239686;22;20039;-86
2022/01/11 04:23:00;;;;;;;82.03;47.00;;;;;;;-2.70;100.00;102620.81;6263842;22;20016;-86
2022/01/11 04:25:29;;;;;;;85.40;49.60;;;;;;;-2.68;100.00;102614.63;6263656;22;20040;-86
2022/01/11 04:27:54;;;;;;;88.97;49.50;;;;;;;-2.65;100.00;102613.69;6240262;22;20016;-84
2022/01/11 04:30:20;;;;;;;84.63;46.55;;;;;;;-2.70;100.00;102613.81;6212916;22;20019;-83
2022/01/11 04:32:49;;;;;;;102.80;56.10;;;;;;;-2.57;100.00;102607.38;6212180;23;20020;-85
2022/01/11 04:35:26;;;;;;;100.93;54.85;;;;;;;-2.48;100.00;102606.28;6239244;22;20458;-83
2022/01/11 04:37:52;;;;;;;100.38;55.03;;;;;;;-2.40;100.00;102614.00;6238068;23;20732;-84
2022/01/11 04:40:17;;;;;;;93.63;47.70;;;;;;;-2.41;100.00;102621.03;6262278;22;20295;-84
2022/01/11 04:42:43;;;;;;;97.05;48.85;;;;;;;-2.41;100.00;102617.53;6263459;22;20075;-85
2022/01/11 04:45:14;;;;;;;105.93;57.00;;;;;;;-2.33;100.00;102618.19;6237102;22;20307;-84
2022/01/11 04:47:40;;;;;;;107.10;54.75;;;;;;;-2.32;100.00;102620.81;6241945;22;20054;-85
2022/01/11 04:50:08;;;;;;;112.78;56.10;;;;;;;-2.26;100.00;102625.06;6237668;22;20020;-85
2022/01/11 04:52:35;;;;;;;113.93;56.38;;;;;;;-2.26;100.00;102619.78;6237771;23;20051;-84
2022/01/11 04:55:04;;;;;;;117.03;51.30;;;;;;;-2.28;100.00;102621.59;6238035;23;20020;-85
2022/01/11 04:57:30;;;;;;;120.25;52.72;;;;;;;-2.29;100.00;102625.13;6238808;22;20026;-84
2022/01/11 04:59:55;;;;;;;138.07;56.08;;;;;;;-2.30;100.00;102620.78;6237366;23;20350;-83
2022/01/11 05:02:21;;;;;;;163.60;70.60;;;;;;;-2.26;100.00;102622.44;6213566;22;20019;-84
2022/01/11 05:04:46;;;;;;;150.75;60.00;;;;;;;-2.26;100.00;102619.78;6240104;22;20435;-85
2022/01/11 05:07:13;;;;;;;163.35;71.53;;;;;;;-2.21;100.00;102615.28;6238082;22;20020;-84
2022/01/11 05:09:38;;;;;;;205.55;74.45;;;;;;;-2.26;100.00;102617.16;6240671;23;20094;-86
2022/01/11 05:12:04;;;;;;;213.63;61.15;;;;;;;-2.27;100.00;102613.69;6211352;22;20020;-84
2022/01/11 05:14:29;;;;;;;239.55;75.35;;;;;;;-2.26;100.00;102622.44;6237847;22;20358;-86
2022/01/11 05:16:55;;;;;;;265.25;74.55;;;;;;;-2.26;100.00;102627.69;6215667;23;20442;-85
2022/01/11 05:19:20;;;;;;;211.38;60.80;;;;;;;-2.27;100.00;102625.97;6265856;22;20016;-84
2022/01/11 05:21:46;;;;;;;228.45;58.70;;;;;;;-2.31;100.00;102616.41;6242492;22;20508;-83
2022/01/11 05:24:12;;;;;;;229.13;63.45;;;;;;;-2.30;100.00;102619.00;6240760;22;20473;-84
2022/01/11 05:26:38;;;;;;;244.80;74.32;;;;;;;-2.29;100.00;102622.50;6235821;23;20089;-84
2022/01/11 05:29:04;;;;;;;233.00;70.72;;;;;;;-2.28;100.00;102626.84;6208778;22;20086;-84
2022/01/11 05:31:30;;;;;;;227.02;63.75;;;;;;;-2.32;100.00;102628.69;6236860;23;20028;-84
2022/01/11 05:34:03;;;;;;;229.75;63.17;;;;;;;-2.32;100.00;102633.94;6241223;22;20103;-84
2022/01/11 05:36:31;;;;;;;223.88;67.88;;;;;;;-2.32;100.00;102627.84;6236489;23;20020;-86
2022/01/11 05:38:58;;;;;;;191.38;57.00;;;;;;;-2.38;100.00;102630.63;6236225;23;20103;-84
2022/01/11 05:41:26;;;;;;;176.93;57.25;;;;;;;-2.37;100.00;102635.81;6233288;22;20043;-83
2022/01/11 05:43:53;;;;;;;164.85;55.17;;;;;;;-2.45;100.00;102636.91;6182407;23;20085;-84
2022/01/11 05:46:18;;;;;;;150.20;49.97;;;;;;;-2.41;100.00;102638.56;6234380;22;20051;-84
2022/01/11 05:48:48;;;;;;;196.40;62.33;;;;;;;-2.38;100.00;102638.50;6208425;23;20023;-83
2022/01/11 05:51:15;;;;;;;212.02;64.32;;;;;;;-2.39;100.00;102637.63;6233532;22;20024;-84
2022/01/11 05:53:41;;;;;;;183.32;59.35;;;;;;;-2.39;100.00;102637.63;6239606;22;20664;-85
2022/01/11 05:56:07;;;;;;;197.23;62.28;;;;;;;-2.40;100.00;102649.03;6234384;22;20078;-84
2022/01/11 05:58:33;;;;;;;220.73;69.00;;;;;;;-2.28;100.00;102653.16;6234370;22;20012;-85
2022/01/11 06:00:59;;;;;;;214.82;68.78;;;;;;;-2.27;100.00;102654.91;6209505;23;20528;-84
2022/01/11 06:03:24;;;;;;;200.13;66.85;;;;;;;-2.35;100.00;102649.81;6234239;22;20023;-83
2022/01/11 06:05:50;;;;;;;185.02;63.40;;;;;;;-2.35;100.00;102664.72;6233998;23;20024;-83
2022/01/11 06:08:18;;;;;;;178.80;55.35;;;;;;;-2.47;100.00;102663.25;6261598;22;20016;-83
2022/01/11 06:10:47;;;;;;;165.57;53.55;;;;;;;-2.47;100.00;102671.13;6238933;22;20023;-84
2022/01/11 06:13:13;;;;;;;167.25;54.35;;;;;;;-2.58;100.00;102676.63;6236209;22;20016;-84
2022/01/11 06:15:39;;;;;;;197.10;66.00;;;;;;;-2.46;100.00;102667.59;6237274;22;20024;-84
2022/01/11 06:18:05;;;;;;;184.85;54.63;;;;;;;-2.54;100.00;102674.78;6239015;22;20090;-84
2022/01/11 06:20:31;;;;;;;136.57;45.25;;;;;;;-2.61;100.00;102673.22;6239181;22;20362;-83
2022/01/11 06:22:58;;;;;;;148.05;45.25;;;;;;;-2.56;100.00;102673.94;6233775;23;20063;-83
2022/01/11 06:25:23;;;;;;;147.05;43.42;;;;;;;-2.61;100.00;102670.56;6235076;22;20016;-84
2022/01/11 06:27:49;;;;;;;175.70;54.42;;;;;;;-2.56;100.00;102666.94;6238714;23;20024;-83
2022/01/11 06:30:16;;;;;;;154.13;45.92;;;;;;;-2.52;100.00;102671.22;6234760;22;20091;-84
2022/01/11 06:32:45;;;;;;;140.50;47.47;;;;;;;-2.61;100.00;102668.81;6259802;22;20020;-82
2022/01/11 06:35:17;;;;;;;133.52;45.00;;;;;;;-2.59;100.00;102674.00;6235001;22;20016;-83
2022/01/11 06:37:44;;;;;;;142.70;44.10;;;;;;;-2.63;100.00;102669.72;6234495;23;20012;-83
2022/01/11 06:40:12;;;;;;;169.63;48.50;;;;;;;-2.65;100.00;102682.91;6235123;22;20024;-83
2022/01/11 06:42:37;;;;;;;177.65;54.35;;;;;;;-2.64;100.00;102674.13;6235407;23;20027;-84
2022/01/11 06:45:04;;;;;;;186.30;52.50;;;;;;;-2.64;100.00;102671.50;6235229;22;20359;-83
2022/01/11 06:47:30;;;;;;;144.07;39.03;;;;;;;-2.67;100.00;102679.47;6236208;22;20023;-81
2022/01/11 06:49:55;;;;;;;159.80;44.03;;;;;;;-2.74;100.00;102677.84;6238662;22;20384;-82
2022/01/11 06:52:21;;;;;;;156.30;46.72;;;;;;;-2.69;100.00;102683.88;6260741;22;20096;-84
2022/01/11 06:54:46;;;;;;;154.95;49.80;;;;;;;-2.68;100.00;102685.59;6211576;23;20390;-84
2022/01/11 06:57:11;;;;;;;169.95;49.75;;;;;;;-2.64;100.00;102684.66;6235689;22;20106;-85
2022/01/11 06:59:37;;;;;;;191.40;49.47;;;;;;;-2.68;100.00;102682.97;6236150;23;20024;-84
2022/01/11 07:02:06;;;;;;;149.25;45.30;;;;;;;-2.66;100.00;102686.44;6235573;22;20015;-84
2022/01/11 07:04:32;;;;;;;;;;;;;;;-2.66;100.00;102691.69;6235813;23;20015;-84
2022/01/11 07:06:59;;;;;;;137.77;41.42;;;;;;;-2.79;100.00;102704.25;6237948;22;20238;-84
2022/01/11 07:09:30;;;;;;;152.15;47.35;;;;;;;-2.77;100.00;102696.31;6260126;22;20012;-84
2022/01/11 07:11:55;;;;;;;138.00;44.63;;;;;;;-2.74;100.00;102706.75;6234656;23;20028;-84
2022/01/11 07:14:21;;;;;;;140.85;47.78;;;;;;;-2.68;100.00;102711.88;6184191;22;20026;-83
2022/01/11 07:16:48;;;;;;;132.77;44.88;;;;;;;-2.64;100.00;102716.19;6270703;22;20015;-84
2022/01/11 07:19:16;;;;;;;136.18;43.78;;;;;;;-2.66;100.00;102731.13;6248605;22;20012;-84
2022/01/11 07:21:44;;;;;;;141.57;46.40;;;;;;;-2.68;100.00;102734.66;6245566;22;20027;-84
2022/01/11 07:24:12;;;;;;;100.15;33.42;;;;;;;-2.75;100.00;102744.44;6244796;22;20331;-84
2022/01/11 07:26:38;;;;;;;134.10;35.33;;;;;;;-2.82;100.00;102748.09;6242552;22;20016;-84
2022/01/11 07:29:05;;;;;;;175.02;47.42;;;;;;;-2.74;100.00;102747.03;6212039;22;20024;-83
2022/01/11 07:31:31;;;;;;;143.75;45.05;;;;;;;-2.80;100.00;102747.16;6210654;23;20719;-83
2022/01/11 07:34:04;;;;;;;176.45;46.70;;;;;;;-2.74;100.00;102754.91;6239081;22;20016;-83
2022/01/11 07:36:30;;;;;;;139.35;39.67;;;;;;;-2.74;100.00;102756.69;6235795;23;20022;-83
2022/01/11 07:38:55;;;;;;;156.15;40.58;;;;;;;-2.73;100.00;102758.44;6235209;23;20020;-84
2022/01/11 07:41:21;;;;;;;141.45;37.65;;;;;;;-2.74;100.00;102756.69;6210131;22;20012;-84
2022/01/11 07:43:46;;;;;;;232.82;54.97;;;;;;;-2.68;100.00;102758.31;6236347;22;20070;-83
2022/01/11 07:46:14;;;;;;;187.40;49.53;;;;;;;-2.68;100.00;102753.94;6235461;22;20087;-83
2022/01/11 07:48:40;;;;;;;153.55;40.92;;;;;;;-2.70;100.00;102746.97;6236403;23;20012;-84
2022/01/11 07:51:06;;;;;;;170.93;49.92;;;;;;;-2.60;100.00;102751.16;6209700;23;20020;-83
2022/01/11 07:53:32;;;;;;;167.30;44.20;;;;;;;-2.62;100.00;102760.81;6236513;23;20036;-82
2022/01/11 07:55:58;;;;;;;188.40;53.10;;;;;;;-2.64;100.00;102763.50;6235415;23;20506;-83
2022/01/11 07:58:25;;;;;;;175.13;50.60;;;;;;;-2.60;100.00;102770.41;6260945;22;20008;-84
2022/01/11 08:00:51;;;;;;;184.60;46.15;;;;;;;-2.60;100.00;102765.16;6234828;23;20099;-83
2022/01/11 08:03:17;;;;;;;187.07;51.63;;;;;;;-2.64;100.00;102762.63;6210136;22;20052;-84
2022/01/11 08:05:43;;;;;;;188.18;48.10;;;;;;;-2.61;100.00;102770.47;6236202;23;20485;-83
2022/01/11 08:08:10;;;;;;;167.57;51.92;;;;;;;-2.52;100.00;102762.38;6235448;23;20020;-83
2022/01/11 08:10:36;;;;;;;213.40;52.13;;;;;;;-2.60;100.00;102764.28;6235704;23;20016;-83
2022/01/11 08:13:05;;;;;;;227.30;55.03;;;;;;;-2.57;100.00;102767.72;6236512;22;20028;-83
2022/01/11 08:15:34;;;;;;;189.65;53.30;;;;;;;-2.57;100.00;102770.34;6233545;22;20012;-83
2022/01/11 08:18:00;;;;;;;209.25;52.13;;;;;;;-2.64;100.00;102775.78;6262226;22;20039;-83
2022/01/11 08:20:25;;;;;;;178.63;45.00;;;;;;;-2.58;100.00;102768.63;6235026;22;20019;-83
2022/01/11 08:22:53;;;;;;;171.35;43.00;;;;;;;-2.59;100.00;102776.53;6234647;23;20078;-84
2022/01/11 08:25:20;;;;;;;218.03;55.90;;;;;;;-2.56;100.00;102777.34;6235945;22;20415;-83
2022/01/11 08:27:46;;;;;;;198.32;50.60;;;;;;;-2.47;100.00;102780.66;6237797;22;20012;-84
2022/01/11 08:30:12;;;;;;;223.70;54.90;;;;;;;-2.44;100.00;102778.00;6231951;22;20024;-83
2022/01/11 08:32:38;;;;;;;171.95;43.95;;;;;;;-2.50;100.00;102787.75;6234613;23;20449;-83
2022/01/11 08:35:04;;;;;;;220.80;52.50;;;;;;;-2.51;100.00;102778.09;6237015;22;20016;-85
2022/01/11 08:37:29;;;;;;;215.52;46.80;;;;;;;-2.51;100.00;102780.72;6259772;22;20016;-84
2022/01/11 08:39:55;;;;;;;182.98;42.47;;;;;;;-2.50;100.00;102789.50;6209162;23;20095;-84
2022/01/11 08:42:20;;;;;;;231.20;52.33;;;;;;;-2.48;100.00;102786.84;6233219;22;20446;-84
2022/01/11 08:44:47;;;;;;;197.48;58.47;;;;;;;-2.41;100.00;102788.47;6239008;22;20083;-84
2022/01/11 08:47:14;;;;;;;187.38;48.33;;;;;;;-2.41;100.00;102788.47;6233254;22;20016;-84
2022/01/11 08:49:40;;;;;;;196.35;50.85;;;;;;;-2.42;100.00;102781.44;6209644;23;20012;-84
2022/01/11 08:52:06;;;;;;;228.07;56.78;;;;;;;-2.32;100.00;102775.09;6260980;22;20528;-83
2022/01/11 08:54:31;;;;;;;255.52;58.10;;;;;;;-2.34;100.00;102788.28;6259430;22;20464;-83
2022/01/11 08:57:00;;;;;;;236.25;57.80;;;;;;;-2.31;100.00;102789.97;6209437;23;20497;-84
2022/01/11 08:59:27;;;;;;;211.88;48.42;;;;;;;-2.34;100.00;102788.28;6208425;22;20051;-83
2022/01/11 09:01:58;;;;;;;240.95;53.80;;;;;;;-2.31;100.00;102789.97;6236347;22;20029;-84
2022/01/11 09:04:29;;;;;;;214.10;41.30;;;;;;;-2.34;100.00;102792.66;6234008;22;20043;-84
2022/01/11 09:06:57;;;;;;;199.57;48.08;;;;;;;-2.37;100.00;102795.38;6234210;23;20027;-84
2022/01/11 09:09:24;;;;;;;219.95;49.72;;;;;;;-2.34;100.00;102788.28;6235991;22;20012;-84
2022/01/11 09:11:51;;;;;;;236.98;57.00;;;;;;;-2.30;100.00;102778.56;6210917;23;20039;-83
2022/01/11 09:14:17;;;;;;;213.05;51.47;;;;;;;-2.26;100.00;102780.22;6183748;22;20086;-84
2022/01/11 09:16:42;;;;;;;221.43;57.53;;;;;;;-2.25;100.00;102784.59;6236773;22;20012;-84
2022/01/11 09:19:08;;;;;;;258.52;54.72;;;;;;;-2.21;100.00;102783.63;6234520;22;20066;-83
2022/01/11 09:21:33;;;;;;;209.07;52.78;;;;;;;-2.23;100.00;102788.06;6209046;23;20549;-84
2022/01/11 09:23:59;;;;;;;194.50;45.22;;;;;;;-2.24;100.00;102783.69;6235089;23;20130;-85
2022/01/11 09:26:24;;;;;;;223.48;56.03;;;;;;;-2.21;100.00;102791.53;6233736;22;20023;-85
2022/01/11 09:28:50;;;;;;;301.13;62.13;;;;;;;-2.13;100.00;102789.59;6237451;22;20099;-84
2022/01/11 09:31:16;;;;;;;274.30;61.53;;;;;;;-2.14;100.00;102790.47;6234130;22;20030;-85
2022/01/11 09:33:46;;;;;;;237.95;51.03;;;;;;;-2.11;100.00;102806.19;6235161;23;20016;-84
2022/01/11 09:36:18;;;;;;;227.68;54.50;;;;;;;-2.17;100.00;102813.38;6260054;22;20039;-85
2022/01/11 09:38:44;;;;;;;226.80;58.38;;;;;;;-2.08;100.00;102811.38;6236856;22;20016;-85
2022/01/11 09:41:11;;;;;;;221.93;55.03;;;;;;;-1.99;100.00;102805.06;6260111;22;20066;-84
2022/01/11 09:43:37;;;;;;;254.75;60.25;;;;;;;-1.98;100.00;102805.94;6208827;23;20020;-85
2022/01/11 09:46:03;;;;;;;227.20;57.65;;;;;;;-1.96;100.00;102806.75;6260731;22;20008;-84
2022/01/11 09:48:32;;;;;;;212.02;51.88;;;;;;;-2.00;100.00;102810.38;6235540;22;20364;-85
2022/01/11 09:50:59;;;;;;;267.98;61.65;;;;;;;-1.95;100.00;102809.38;6185671;23;20066;-85
2022/01/11 09:53:25;;;;;;;231.50;49.55;;;;;;;-2.05;100.00;102811.31;6233182;22;20026;-85
2022/01/11 09:55:51;;;;;;;301.98;67.60;;;;;;;-1.99;100.00;102801.56;6260656;22;20374;-84
2022/01/11 09:58:17;;;;;;;283.45;62.95;;;;;;;-1.95;100.00;102811.13;6234763;22;20036;-84
2022/01/11 10:00:43;;;;;;;290.95;67.75;;;;;;;-1.94;100.00;102810.22;6235055;22;20067;-85
2022/01/11 10:03:09;;;;;;;290.75;66.03;;;;;;;-1.90;100.00;102801.34;6209158;22;20016;-85
2022/01/11 10:05:36;;;;;;;259.58;60.35;;;;;;;-1.97;100.00;102798.00;6237364;22;20016;-85
2022/01/11 10:08:17;;;;;;;243.90;54.67;;;;;;;-1.97;100.00;102799.78;6233945;23;20012;-85
2022/01/11 10:10:44;;;;;;;281.00;63.20;;;;;;;-1.92;100.00;102803.16;6236920;23;20472;-85
2022/01/11 10:13:28;;;;;;;251.85;56.92;;;;;;;-1.89;100.00;102801.31;6235056;22;20332;-84
2022/01/11 10:15:53;;;;;;;273.13;58.42;;;;;;;-1.86;100.00;102813.56;6209813;23;20024;-85
2022/01/11 10:18:35;;;;;;;333.95;72.93;;;;;;;-1.78;100.00;102816.00;6236377;22;20022;-85
2022/01/11 10:21:04;;;;;;;306.83;74.53;;;;;;;-1.78;100.00;102813.34;6209800;22;20451;-86
2022/01/11 10:23:33;;;;;;;309.50;70.68;;;;;;;-1.76;100.00;102816.84;6211310;22;20076;-87
2022/01/11 10:25:59;;;;;;;273.23;67.87;;;;;;;-1.75;100.00;102811.53;6213367;23;20012;-85
2022/01/11 10:28:35;;;;;;;299.25;70.50;;;;;;;-1.75;100.00;102806.28;6234671;22;20016;-85
2022/01/11 10:31:01;;;;;;;319.17;77.28;;;;;;;-1.74;100.00;102810.63;6236031;23;20016;-86
2022/01/11 10:33:26;;;;;;;310.90;74.70;;;;;;;-1.72;100.00;102807.97;6236008;22;20019;-85
2022/01/11 10:35:52;;;;;;;304.92;73.05;;;;;;;-1.68;100.00;102822.78;6211417;23;20350;-86
2022/01/11 10:38:29;;;;;;;276.85;60.67;;;;;;;-1.70;100.00;102816.69;6237777;22;20145;-86
2022/01/11 10:40:54;;;;;;;278.80;64.88;;;;;;;-1.65;100.00;102807.78;6236277;23;20061;-86
2022/01/11 10:43:22;;;;;;;315.98;68.22;;;;;;;-1.66;100.00;102811.31;6234945;22;20063;-85
2022/01/11 10:45:53;;;;;;;241.57;55.40;;;;;;;-1.70;100.00;102809.66;6236211;22;20016;-86
2022/01/11 10:48:22;;;;;;;251.90;57.47;;;;;;;-1.65;100.00;102810.41;6237576;22;20082;-86
2022/01/11 10:50:56;;;;;;;316.52;74.97;;;;;;;-1.59;100.00;102823.44;6236118;22;20546;-86
2022/01/11 10:53:24;;;;;;;302.23;71.85;;;;;;;-1.54;100.00;102818.06;6235642;22;20400;-88
2022/01/11 10:56:01;;;;;;;364.20;77.43;;;;;;;-1.43;100.00;102815.19;6212160;23;20023;-87
2022/01/11 10:58:36;;;;;;;313.17;67.95;;;;;;;-1.46;100.00;102815.25;6211620;22;20243;-86
2022/01/11 11:01:05;;;;;;;310.90;69.88;;;;;;;-1.50;100.00;102810.94;6235546;23;20026;-87
2022/01/11 11:03:32;;;;;;;356.77;75.53;;;;;;;-1.44;100.00;102811.69;6235203;22;20024;-87